createdAt,value
2022-10-18T00:00:52.992Z,101868.59
2022-10-18T00:03:59.545Z,101872.73
2022-10-18T00:07:05.816Z,101879.53
2022-10-18T00:10:11.767Z,101871.58
2022-10-18T00:13:18.607Z,101878.05
2022-10-18T00:16:21.291Z,101878.05
2022-10-18T00:19:28.590Z,101875.02
2022-10-18T00:22:34.721Z,101865.61
2022-10-18T00:25:40.508Z,101860.98
2022-10-18T00:28:47.223Z,101866.92
2022-10-18T00:31:53.676Z,101864.86
2022-10-18T00:35:00.042Z,101860.62
2022-10-18T00:38:05.344Z,101858.07
2022-10-18T00:41:11.337Z,101856.31
2022-10-18T00:44:23.790Z,101856.17
2022-10-18T00:47:30.318Z,101854.28
2022-10-18T00:50:36.816Z,101847.98
2022-10-18T00:53:41.686Z,101846.45
2022-10-18T00:56:46.811Z,101848.48
2022-10-18T00:59:53.157Z,101847.45
2022-10-18T01:03:00.198Z,101845.95
2022-10-18T01:06:05.309Z,101844.74
2022-10-18T01:09:22.561Z,101846.01
2022-10-18T01:12:55.100Z,101836.52
2022-10-18T01:16:14.303Z,101836.52
2022-10-18T01:19:26.681Z,101836.45
2022-10-18T01:22:52.645Z,101836.85
2022-10-18T01:26:37.831Z,101836.11
2022-10-18T01:30:05.829Z,101834.20
2022-10-18T01:33:23.699Z,101834.48
2022-10-18T01:36:41.636Z,101832.72
2022-10-18T01:39:49.440Z,101834.20
2022-10-18T01:42:55.214Z,101828.14
2022-10-18T01:45:54.768Z,101825.40
2022-10-18T01:49:00.440Z,101829.02
2022-10-18T01:52:05.894Z,101820.84
2022-10-18T01:55:13.020Z,101821.88
2022-10-18T01:58:38.557Z,101811.07
2022-10-18T02:02:06.569Z,101815.36
2022-10-18T02:05:25.490Z,101816.50
2022-10-18T02:08:51.505Z,101816.38
2022-10-18T02:11:58.123Z,101816.51
2022-10-18T02:15:05.079Z,101813.97
2022-10-18T02:18:10.646Z,101813.63
2022-10-18T02:21:17.422Z,101815.08
2022-10-18T02:24:24.451Z,101814.16
2022-10-18T02:27:29.956Z,101818.04
2022-10-18T02:30:38.624Z,101818.47
2022-10-18T02:33:49.015Z,101818.55
2022-10-18T02:37:14.824Z,101818.14
2022-10-18T02:40:22.217Z,101821.30
2022-10-18T02:43:27.900Z,101811.11
2022-10-18T02:46:34.882Z,101803.73
2022-10-18T02:49:40.909Z,101810.38
2022-10-18T02:52:46.291Z,101812.61
2022-10-18T02:55:52.255Z,101802.66
2022-10-18T02:58:57.489Z,101798.50
2022-10-18T03:02:02.126Z,101791.65
2022-10-18T03:05:08.924Z,101796.20
2022-10-18T03:08:15.060Z,101798.58
2022-10-18T03:11:21.106Z,101799.45
2022-10-18T03:14:26.657Z,101809.16
2022-10-18T03:17:31.571Z,101809.03
2022-10-18T03:20:37.174Z,101812.08
2022-10-18T03:23:43.635Z,101810.75
2022-10-18T03:26:50.398Z,101799.35
2022-10-18T03:29:57.314Z,101795.77
2022-10-18T03:33:03.816Z,101798.50
2022-10-18T03:36:09.220Z,101789.34
2022-10-18T03:39:14.953Z,101791.48
2022-10-18T03:42:20.957Z,101791.69
2022-10-18T03:45:29.020Z,101790.63
2022-10-18T03:48:35.673Z,101786.80
2022-10-18T03:51:42.186Z,101783.42
2022-10-18T03:54:48.156Z,101781.86
2022-10-18T03:57:54.000Z,101776.37
2022-10-18T04:01:00.047Z,101786.59
2022-10-18T04:04:06.055Z,101776.20
2022-10-18T04:07:12.506Z,101776.31
2022-10-18T04:10:19.122Z,101773.56
2022-10-18T04:13:24.624Z,101766.22
2022-10-18T04:16:31.297Z,101775.37
2022-10-18T04:19:37.232Z,101772.09
2022-10-18T04:22:42.919Z,101769.50
2022-10-18T04:25:48.585Z,101772.59
2022-10-18T04:28:54.017Z,101768.57
2022-10-18T04:31:59.575Z,101769.60
2022-10-18T04:35:05.509Z,101765.53
2022-10-18T04:38:11.981Z,101760.92
2022-10-18T04:41:17.994Z,101758.98
2022-10-18T04:44:24.151Z,101760.80
2022-10-18T04:47:29.797Z,101762.35
2022-10-18T04:50:36.253Z,101761.59
2022-10-18T04:53:44.511Z,101760.81
2022-10-18T04:56:51.081Z,101762.13
2022-10-18T04:59:56.280Z,101764.38
2022-10-18T05:03:02.189Z,101763.84
2022-10-18T05:06:07.710Z,101767.05
2022-10-18T05:09:14.407Z,101761.55
2022-10-18T05:12:20.043Z,101763.70
2022-10-18T05:15:26.617Z,101772.89
2022-10-18T05:18:33.153Z,101779.47
2022-10-18T05:21:39.400Z,101775.95
2022-10-18T05:24:44.810Z,101780.77
2022-10-18T05:27:50.624Z,101779.55
2022-10-18T05:30:57.033Z,101776.47
2022-10-18T05:34:02.602Z,101774.39
2022-10-18T05:37:08.924Z,101780.47
2022-10-18T05:40:15.552Z,101786.19
2022-10-18T05:43:21.554Z,101788.28
2022-10-18T05:46:28.057Z,101787.17
2022-10-18T05:49:32.996Z,101792.41
2022-10-18T05:52:38.198Z,101796.72
2022-10-18T05:55:44.285Z,101801.67
2022-10-18T05:58:50.210Z,101801.92
2022-10-18T06:01:57.212Z,101795.73
2022-10-18T06:05:02.727Z,101796.97
2022-10-18T06:08:10.801Z,101800.23
2022-10-18T06:11:22.099Z,101792.73
2022-10-18T06:14:21.247Z,101790.80
2022-10-18T06:17:30.299Z,101794.17
2022-10-18T06:20:36.439Z,101798.14
2022-10-18T06:23:46.161Z,101794.14
2022-10-18T06:26:51.831Z,101795.94
2022-10-18T06:29:58.863Z,101799.78
2022-10-18T06:33:05.247Z,101801.05
2022-10-18T06:36:17.228Z,101797.95
2022-10-18T06:39:40.979Z,101801.15
2022-10-18T06:42:55.280Z,101806.05
2022-10-18T06:45:57.404Z,101797.45
2022-10-18T06:49:02.598Z,101796.19
2022-10-18T06:52:09.885Z,101791.14
2022-10-18T06:55:17.231Z,101788.41
2022-10-18T06:58:23.049Z,101786.83
2022-10-18T07:01:30.454Z,101783.56
2022-10-18T07:04:37.275Z,101790.25
2022-10-18T07:07:50.628Z,101782.50
2022-10-18T07:10:56.316Z,101773.97
2022-10-18T07:14:01.954Z,101769.67
2022-10-18T07:17:08.562Z,101765.95
2022-10-18T07:20:18.299Z,101757.61
2022-10-18T07:23:24.941Z,101756.38
2022-10-18T07:26:44.506Z,101754.63
2022-10-18T07:29:49.681Z,101754.59
2022-10-18T07:32:55.506Z,101751.13
2022-10-18T07:36:04.532Z,101745.73
2022-10-18T07:39:13.879Z,101749.06
2022-10-18T07:42:19.243Z,101745.50
2022-10-18T07:45:25.645Z,101745.64
2022-10-18T07:48:31.978Z,101746.59
2022-10-18T07:51:40.268Z,101742.73
2022-10-18T07:54:46.479Z,101730.89
2022-10-18T07:57:51.796Z,101736.08
2022-10-18T08:00:58.674Z,101732.80
2022-10-18T08:04:09.795Z,101723.34
2022-10-18T08:07:17.227Z,101724.03
2022-10-18T08:10:24.197Z,101719.88
2022-10-18T08:13:29.534Z,101718.69
2022-10-18T08:16:39.419Z,101712.28
2022-10-18T08:19:52.900Z,101711.58
2022-10-18T08:22:51.515Z,101706.72
2022-10-18T08:25:57.132Z,101699.20
2022-10-18T08:29:21.126Z,101689.83
2022-10-18T08:32:12.843Z,101689.69
2022-10-18T08:35:17.837Z,101694.27
2022-10-18T08:38:24.947Z,101684.02
2022-10-18T08:41:35.318Z,101687.98
2022-10-18T08:44:46.882Z,101685.71
2022-10-18T08:48:00.730Z,101682.33
2022-10-18T08:51:06.799Z,101671.42
2022-10-18T08:54:28.252Z,101667.99
2022-10-18T08:57:35.097Z,101671.44
2022-10-18T09:00:45.098Z,101672.14
2022-10-18T09:04:22.627Z,101670.23
2022-10-18T09:08:05.866Z,101657.80
2022-10-18T09:11:38.850Z,101662.83
2022-10-18T09:15:10.293Z,101657.68
2022-10-18T09:18:57.445Z,101652.04
2022-10-18T09:22:10.533Z,101637.60
2022-10-18T09:25:53.076Z,101630.00
2022-10-18T09:29:12.598Z,101632.74
2022-10-18T09:32:42.301Z,101628.70
2022-10-18T09:35:58.101Z,101616.47
2022-10-18T09:39:07.089Z,101611.69
2022-10-18T09:42:23.430Z,101605.93
2022-10-18T09:45:49.139Z,101601.17
2022-10-18T09:49:04.324Z,101601.66
2022-10-18T09:52:10.958Z,101596.02
2022-10-18T09:55:32.398Z,101590.81
2022-10-18T09:58:31.807Z,101583.45
2022-10-18T10:01:40.852Z,101583.45
2022-10-18T10:04:46.476Z,101586.69
2022-10-18T10:07:58.798Z,101576.73
2022-10-18T10:11:04.686Z,101559.08
2022-10-18T10:14:33.444Z,101562.59
2022-10-18T10:17:39.986Z,101562.59
2022-10-18T10:20:53.206Z,101552.79
2022-10-18T10:24:07.334Z,101560.03
2022-10-18T10:27:16.771Z,101555.09
2022-10-18T10:30:37.659Z,101550.39
2022-10-18T10:33:51.523Z,101543.25
2022-10-18T10:37:06.293Z,101540.07
2022-10-18T10:40:36.788Z,101540.07
2022-10-18T10:43:52.564Z,101537.83
2022-10-18T10:47:00.273Z,101538.11
2022-10-18T10:50:05.821Z,101531.46
2022-10-18T10:53:21.600Z,101524.70
2022-10-18T10:56:38.341Z,101518.25
2022-10-18T10:59:46.979Z,101516.70
2022-10-18T11:03:00.676Z,101517.45
2022-10-18T11:06:04.670Z,101501.59
2022-10-18T11:09:10.783Z,101501.96
2022-10-18T11:12:39.847Z,101492.92
2022-10-18T11:15:56.186Z,101485.09
2022-10-18T11:19:03.587Z,101473.42
2022-10-18T11:22:09.895Z,101469.66
2022-10-18T11:25:15.861Z,101467.57
2022-10-18T11:28:56.714Z,101458.67
2022-10-18T11:32:35.448Z,101458.98
2022-10-18T11:36:00.280Z,101457.27
2022-10-18T11:39:24.413Z,101455.82
2022-10-18T11:42:40.292Z,101452.26
2022-10-18T11:45:56.014Z,101446.66
2022-10-18T11:49:33.883Z,101446.19
2022-10-18T11:52:48.985Z,101431.59
2022-10-18T11:56:22.855Z,101435.39
2022-10-18T11:59:52.247Z,101432.48
2022-10-18T12:03:36.409Z,101426.34
2022-10-18T12:06:48.075Z,101422.70
2022-10-18T12:09:56.347Z,101412.90
2022-10-18T12:13:09.228Z,101407.98
2022-10-18T12:16:16.908Z,101406.34
2022-10-18T12:19:34.509Z,101399.76
2022-10-18T12:22:57.107Z,101389.66
2022-10-18T12:26:10.981Z,101381.96
2022-10-18T12:29:48.046Z,101381.31
2022-10-18T12:33:03.354Z,101375.28
2022-10-18T12:36:22.086Z,101377.52
2022-10-18T12:39:43.652Z,101372.90
2022-10-18T12:42:38.620Z,101371.06
2022-10-18T12:45:47.947Z,101367.91
2022-10-18T12:48:58.411Z,101365.76
2022-10-18T12:52:18.804Z,101355.23
2022-10-18T12:55:31.960Z,101353.05
2022-10-18T12:58:41.769Z,101356.41
2022-10-18T13:02:03.672Z,101349.18
2022-10-18T13:05:00.731Z,101345.05
2022-10-18T13:08:05.437Z,101339.13
2022-10-18T13:11:29.135Z,101342.41
2022-10-18T13:15:05.861Z,101334.48
2022-10-18T13:18:13.504Z,101329.04
2022-10-18T13:22:05.632Z,101328.58
2022-10-18T13:25:41.264Z,101323.77
2022-10-18T13:29:02.823Z,101320.31
2022-10-18T13:32:40.250Z,101322.70
2022-10-18T13:36:12.842Z,101316.97
2022-10-18T13:39:20.549Z,101315.78
2022-10-18T13:42:44.194Z,101309.81
2022-10-18T13:45:59.822Z,101305.70
2022-10-18T13:49:10.330Z,101300.19
2022-10-18T13:52:36.018Z,101292.55
2022-10-18T13:56:22.805Z,101290.44
2022-10-18T13:59:49.659Z,101283.41
2022-10-18T14:03:56.991Z,101285.02
2022-10-18T14:06:50.423Z,101283.66
2022-10-18T14:10:06.319Z,101271.53
2022-10-18T14:13:13.174Z,101269.51
2022-10-18T14:16:44.505Z,101263.46
2022-10-18T14:19:53.485Z,101263.02
2022-10-18T14:23:24.989Z,101252.11
2022-10-18T14:26:35.619Z,101246.42
2022-10-18T14:29:41.394Z,101240.48
2022-10-18T14:32:47.062Z,101236.52
2022-10-18T14:39:10.672Z,101236.82
2022-10-18T14:42:15.673Z,101232.38
2022-10-18T14:45:30.967Z,101225.55
2022-10-18T14:48:36.453Z,101228.36
2022-10-18T14:51:44.332Z,101227.09
2022-10-18T14:54:52.354Z,101220.08
2022-10-18T14:57:58.222Z,101217.47
2022-10-18T15:01:04.014Z,101211.56
2022-10-18T15:04:16.647Z,101212.06
2022-10-18T15:07:24.034Z,101206.59
2022-10-18T15:10:38.999Z,101200.05
2022-10-18T15:13:44.266Z,101201.80
2022-10-18T15:16:51.061Z,101196.89
2022-10-18T15:20:10.343Z,101198.78
2022-10-18T15:23:39.615Z,101198.27
2022-10-18T15:26:45.141Z,101200.81
2022-10-18T15:29:50.740Z,101204.27
2022-10-18T15:33:16.290Z,101203.92
2022-10-18T15:36:27.314Z,101201.48
2022-10-18T15:39:37.773Z,101197.70
2022-10-18T15:42:51.837Z,101194.20
2022-10-18T15:46:05.282Z,101189.62
2022-10-18T15:49:10.683Z,101192.86
2022-10-18T15:52:48.288Z,101192.48
2022-10-18T15:56:02.110Z,101196.95
2022-10-18T15:59:11.436Z,101192.57
2022-10-18T16:02:16.593Z,101188.63
2022-10-18T16:05:25.144Z,101185.00
2022-10-18T16:08:39.257Z,101184.52
2022-10-18T16:11:44.513Z,101187.10
2022-10-18T16:14:49.934Z,101185.14
2022-10-18T16:17:57.032Z,101175.30
2022-10-18T16:21:04.432Z,101177.95
2022-10-18T16:24:09.940Z,101178.37
2022-10-18T16:27:15.921Z,101180.25
2022-10-18T16:30:34.462Z,101176.59
2022-10-18T16:33:39.392Z,101179.05
2022-10-18T16:36:40.540Z,101167.92
2022-10-18T16:39:47.443Z,101164.16
2022-10-18T16:42:53.634Z,101165.63
2022-10-18T16:45:59.178Z,101166.39
2022-10-18T16:49:05.727Z,101166.30
2022-10-18T16:52:11.651Z,101162.68
2022-10-18T16:55:19.608Z,101158.98
2022-10-18T16:58:32.538Z,101153.65
2022-10-18T17:01:38.306Z,101154.59
2022-10-18T17:04:36.774Z,101146.08
2022-10-18T17:07:43.529Z,101144.63
2022-10-18T17:10:49.353Z,101148.23
2022-10-18T17:13:55.206Z,101128.69
2022-10-18T17:17:02.057Z,101135.27
2022-10-18T17:20:09.723Z,101134.72
2022-10-18T17:23:16.395Z,101129.53
2022-10-18T17:26:29.383Z,101125.43
2022-10-18T17:29:32.406Z,101122.72
2022-10-18T17:32:38.947Z,101111.27
2022-10-18T17:35:43.585Z,101113.32
2022-10-18T17:38:50.319Z,101102.70
2022-10-18T17:41:55.471Z,101101.28
2022-10-18T17:45:00.632Z,101098.34
2022-10-18T17:48:06.037Z,101090.53
2022-10-18T17:51:11.496Z,101095.16
2022-10-18T17:54:16.822Z,101087.66
2022-10-18T17:57:23.382Z,101084.97
2022-10-18T18:00:31.916Z,101080.82
2022-10-18T18:03:38.451Z,101071.88
2022-10-18T18:06:47.886Z,101077.08
2022-10-18T18:09:53.688Z,101073.87
2022-10-18T18:13:01.126Z,101074.91
2022-10-18T18:16:05.482Z,101067.05
2022-10-18T18:19:12.603Z,101067.91
2022-10-18T18:22:18.871Z,101058.02
2022-10-18T18:25:24.564Z,101052.08
2022-10-18T18:28:29.710Z,101048.00
2022-10-18T18:31:40.097Z,101042.25
2022-10-18T18:34:43.907Z,101040.70
2022-10-18T18:37:49.409Z,101037.18
2022-10-18T18:40:56.853Z,101031.07
2022-10-18T18:44:09.784Z,101029.77
2022-10-18T18:50:23.306Z,101020.25
2022-10-18T18:53:29.746Z,101016.27
2022-10-18T18:56:38.785Z,101020.36
2022-10-18T18:59:44.258Z,101010.64
2022-10-18T19:02:50.493Z,101007.70
2022-10-18T19:05:58.498Z,101005.94
2022-10-18T19:09:11.405Z,101008.38
2022-10-18T19:12:20.514Z,101007.06
2022-10-18T19:15:26.782Z,101004.44
2022-10-18T19:18:33.214Z,100996.98
2022-10-18T19:21:42.463Z,100995.18
2022-10-18T19:24:48.527Z,100989.72
2022-10-18T19:27:54.290Z,100986.94
2022-10-18T19:31:01.877Z,100986.67
2022-10-18T19:34:08.253Z,100980.63
2022-10-18T19:37:16.475Z,100980.62
2022-10-18T19:40:22.248Z,100971.11
2022-10-18T19:43:27.766Z,100966.00
2022-10-18T19:46:34.255Z,100958.48
2022-10-18T19:49:39.529Z,100957.61
2022-10-18T19:52:45.404Z,100949.95
2022-10-18T19:55:51.259Z,100950.84
2022-10-18T19:58:57.044Z,100951.53
2022-10-18T20:02:02.493Z,100941.35
2022-10-18T20:05:08.823Z,100940.09
2022-10-18T20:08:15.491Z,100936.09
2022-10-18T20:11:24.816Z,100932.44
2022-10-18T20:14:30.971Z,100926.35
2022-10-18T20:17:36.926Z,100926.27
2022-10-18T20:20:47.290Z,100915.77
2022-10-18T20:23:53.537Z,100904.00
2022-10-18T20:27:00.363Z,100892.48
2022-10-18T20:30:10.518Z,100886.22
2022-10-18T20:33:14.639Z,100886.61
2022-10-18T20:36:22.703Z,100881.78
2022-10-18T20:39:28.239Z,100874.94
2022-10-18T20:42:33.456Z,100864.09
2022-10-18T20:45:31.897Z,100856.94
2022-10-18T20:48:24.430Z,100854.94
2022-10-18T20:51:30.224Z,100852.09
2022-10-18T20:54:36.057Z,100848.29
2022-10-18T20:57:37.076Z,100842.96
2022-10-18T21:00:42.973Z,100835.92
2022-10-18T21:03:47.992Z,100837.22
2022-10-18T21:06:55.206Z,100833.80
2022-10-18T21:10:00.136Z,100828.13
2022-10-18T21:13:05.880Z,100825.85
2022-10-18T21:16:12.067Z,100820.62
2022-10-18T21:19:22.477Z,100815.52
2022-10-18T21:22:20.007Z,100815.78
2022-10-18T21:25:26.140Z,100807.59
2022-10-18T21:28:30.858Z,100800.83
2022-10-18T21:31:45.794Z,100801.05
2022-10-18T21:34:52.348Z,100800.74
2022-10-18T21:37:59.195Z,100792.58
2022-10-18T21:41:06.078Z,100787.93
2022-10-18T21:44:12.777Z,100779.56
2022-10-18T21:47:19.212Z,100776.27
2022-10-18T21:50:25.792Z,100765.00
2022-10-18T21:53:34.057Z,100758.73
2022-10-18T21:56:42.217Z,100755.42
2022-10-18T21:59:48.173Z,100748.11
2022-10-18T22:02:47.016Z,100751.28
2022-10-18T22:05:53.312Z,100752.31
2022-10-18T22:09:07.346Z,100748.00
2022-10-18T22:12:13.707Z,100738.12
2022-10-18T22:15:19.433Z,100730.45
2022-10-18T22:18:26.660Z,100727.30
2022-10-18T22:21:33.268Z,100720.96
2022-10-18T22:24:38.858Z,100715.48
2022-10-18T22:27:45.606Z,100715.41
2022-10-18T22:30:52.342Z,100709.19
2022-10-18T22:33:58.717Z,100707.69
2022-10-18T22:37:05.231Z,100703.50
2022-10-18T22:40:11.197Z,100703.79
2022-10-18T22:43:17.131Z,100708.78
2022-10-18T22:46:25.067Z,100708.77
2022-10-18T22:49:30.526Z,100699.45
2022-10-18T22:52:36.277Z,100701.79
2022-10-18T22:55:42.830Z,100701.13
2022-10-18T22:58:49.282Z,100697.91
2022-10-18T23:01:56.092Z,100691.00
2022-10-18T23:05:03.280Z,100689.50
2022-10-18T23:08:09.893Z,100686.89
2022-10-18T23:11:15.883Z,100685.50
2022-10-18T23:14:21.651Z,100676.19
2022-10-18T23:17:27.381Z,100677.31
2022-10-18T23:20:34.096Z,100674.56
2022-10-18T23:23:41.974Z,100666.25
2022-10-18T23:26:48.456Z,100663.80
2022-10-18T23:29:54.510Z,100651.64
2022-10-18T23:32:59.936Z,100639.78
2022-10-18T23:36:05.428Z,100636.62
2022-10-18T23:39:13.650Z,100632.70
2022-10-18T23:42:20.174Z,100625.12
2022-10-18T23:45:25.710Z,100620.13
2022-10-18T23:48:31.478Z,100613.55
2022-10-18T23:51:37.061Z,100607.34
2022-10-18T23:57:48.520Z,100598.48
